Auburn, Kansas
Current Conditions -  °F | °C
As of 2:44 AM on Friday 24 Oct 2014 (Local Time) from KFOE Reporting Station
Haze Haze  
Wind Chill: 58°   Ceiling: 400
Heat Index: 58°   Visibility: 3mi
Dew Point: 56°   Wind: 10mph
Humidity: 93%   Direction: 190°S
Pressure: 30.07"   Gusts: NA
Location:  38.91°N, 95.82°W
Report Text: KFOE 240744Z AUTO 19009KT 3SM BR BKN004 14/13 A3007 RMK AO2 T01440133
Loading
Personal Weather Stations






























Interactive Weather Map
Tropical Storm Tracking
New forecast layout! Learn more

10-Day Weather Forecast

Advertisements
Track Severe Weather on mobile